KFYM

Fayetteville Municipal Airport

Fayetteville, Tennessee, USA
METAR KFYM 141240Z AUTO 13009KT 10SM OVC018 13/11 A2993 RMK A01
Observed Flight Rules
Dec-14 @ 12:40 UTC (3 minutes ago) Marginal Visual Flight Rules
Wind Visibility Clouds
130° at 9 knots 10 miles
  • Overcast at 1,800' AGL
Temperatures Readings
Current 13°C / 55°F
Dewpoint 11°C / 52°F
Humidity 88%
Altimeter 29.93" Hg
Pressure 1014 hPa
Elevation 300
METAR KFYM 141240Z AUTO 13009KT 10SM OVC018 13/11 A2993 RMK A01
Observed Flight Rules
Dec-14 @ 12:40 UTC
(3 minutes ago)
MVFR
Wind Visibility
130° at 9 knots 10 miles
Clouds
  • Overcast at 1,800' AGL
Temperature Dewpoint
13°C / 55°F 11°C / 52°F
Humidity Altimeter Pressure
88% 29.93" Hg 1014 hPa